Roseann, Pennsylvania
Current Conditions -  °F | °C
As of 3:35 AM on Saturday 20 Dec 2014 (Local Time) from KUNV Reporting Station
Overcast Overcast  
Wind Chill: 26°   Ceiling: 2300
Heat Index: 26°   Visibility: 10mi
Dew Point: 18°   Wind: 3mph
Humidity: 74%   Direction: 310°NW
Pressure: 30.23"   Gusts: NA
Location:  40.7567°N, 77.488°W
Report Text: KUNV 200835Z AUTO 31003KT 10SM OVC023 M03/M08 A3023 RMK AO2 T10351076
Loading
Personal Weather Stations






























Interactive Weather Map New forecast layout! Learn more

10-Day Weather Forecast

Advertisements
Track Severe Weather on mobile